Time;durP1;ratioP1;P1;durP2;ratioP2;P2;SDS_P1;SDS_P2;PMS_P1;PMS_P2;Temp;Humidity;BMP_temperature;BMP_pressure;BME280_temperature;BME280_humidity;BME280_pressure;Samples;Min_cycle;Max_cycle;Signal;HPM_P1;HPM_P2
2022/01/30 00:00:57;;;;;;;11.27;3.13;;;6.70;1.00;;;;;;6244431;23;20178;-69
2022/01/30 00:03:24;;;;;;;11.93;2.40;;;6.70;1.00;;;;;;6244566;23;20155;-69
2022/01/30 00:05:51;;;;;;;16.00;2.70;;;6.80;1.00;;;;;;6244071;23;20535;-69
2022/01/30 00:08:18;;;;;;;14.73;3.17;;;6.70;1.00;;;;;;6232005;23;20155;-69
2022/01/30 00:10:46;;;;;;;17.70;2.87;;;6.70;1.00;;;;;;6244166;23;20209;-67
2022/01/30 00:13:16;;;;;;;15.07;3.27;;;6.60;1.00;;;;;;6243924;23;20178;-67
2022/01/30 00:15:48;;;;;;;17.83;3.10;;;6.60;1.00;;;;;;6243783;23;20171;-67
2022/01/30 00:18:30;;;;;;;16.00;3.30;;;6.60;1.00;;;;;;6243965;23;20170;-70
2022/01/30 00:21:07;;;;;;;11.37;2.50;;;6.50;1.00;;;;;;6244739;23;20240;-69
2022/01/30 00:23:38;;;;;;;17.00;2.50;;;6.60;1.00;;;;;;6243707;23;20240;-70
2022/01/30 00:26:07;;;;;;;11.13;2.27;;;6.60;99.90;;;;;;6243353;23;20179;-69
2022/01/30 00:28:34;;;;;;;20.23;3.93;;;6.70;99.90;;;;;;6243767;23;20210;-69
2022/01/30 00:31:04;;;;;;;15.50;3.10;;;6.60;1.00;;;;;;6244221;23;20592;-69
2022/01/30 00:33:31;;;;;;;14.27;2.80;;;6.70;99.90;;;;;;6244165;23;20182;-69
2022/01/30 00:36:01;;;;;;;13.77;3.40;;;6.70;99.90;;;;;;6243705;23;20209;-69
2022/01/30 00:38:28;;;;;;;17.20;3.10;;;6.80;99.90;;;;;;6243810;23;20163;-70
2022/01/30 00:40:55;;;;;;;13.30;3.03;;;6.70;99.90;;;;;;6244220;23;20368;-70
2022/01/30 00:43:22;;;;;;;15.00;2.60;;;6.70;99.90;;;;;;6243904;23;20154;-70
2022/01/30 00:45:49;;;;;;;16.60;3.53;;;6.80;1.00;;;;;;6243747;23;20408;-69
2022/01/30 00:48:18;;;;;;;12.97;2.60;;;6.80;99.90;;;;;;6243973;23;20155;-67
2022/01/30 00:50:47;;;;;;;11.43;2.70;;;6.80;99.90;;;;;;6243490;23;20213;-67
2022/01/30 00:53:15;;;;;;;14.10;3.07;;;6.80;1.00;;;;;;6243753;23;20568;-67
2022/01/30 00:55:42;;;;;;;14.90;3.07;;;6.80;99.90;;;;;;6242908;23;20161;-67
2022/01/30 00:58:09;;;;;;;18.40;2.83;;;6.90;99.90;;;;;;6243744;23;20155;-67
2022/01/30 01:00:37;;;;;;;15.20;2.50;;;6.80;99.90;;;;;;6243504;23;20236;-67
2022/01/30 01:03:05;;;;;;;12.00;2.27;;;6.90;99.90;;;;;;6244113;23;20159;-67
2022/01/30 01:05:35;;;;;;;17.07;2.60;;;6.80;99.90;;;;;;6243151;23;20155;-67
2022/01/30 01:08:10;;;;;;;12.77;3.07;;;6.80;99.90;;;;;;6243881;23;20181;-67
2022/01/30 01:10:42;;;;;;;13.63;3.30;;;6.90;99.90;;;;;;6243213;23;20213;-67
2022/01/30 01:13:20;;;;;;;15.30;2.50;;;6.90;99.90;;;;;;6243542;23;20180;-67
2022/01/30 01:24:04;;;;;;;17.53;2.93;;;7.00;1.00;;;;;;6243419;23;20161;-67
2022/01/30 01:26:32;;;;;;;24.20;3.90;;;6.90;1.00;;;;;;6242974;23;20174;-68
2022/01/30 01:28:59;;;;;;;17.67;3.93;;;6.90;1.00;;;;;;6243529;23;20479;-68
2022/01/30 01:31:27;;;;;;;15.53;3.07;;;6.80;99.90;;;;;;6243530;23;20230;-67
2022/01/30 01:36:37;;;;;;;15.70;3.17;;;6.60;1.00;;;;;;6217386;23;20166;-68
2022/01/30 01:39:05;;;;;;;15.10;3.30;;;6.60;99.90;;;;;;6242957;23;20209;-67
2022/01/30 01:41:33;;;;;;;10.97;2.50;;;6.60;99.90;;;;;;6243331;23;20680;-67
2022/01/30 01:44:01;;;;;;;16.27;2.77;;;6.60;99.90;;;;;;6243489;23;20613;-68
2022/01/30 01:46:31;;;;;;;17.87;3.10;;;6.60;99.90;;;;;;6243756;23;20540;-67
2022/01/30 01:48:58;;;;;;;15.07;3.17;;;6.50;99.90;;;;;;6243044;23;20190;-67
2022/01/30 01:51:29;;;;;;;21.40;3.20;;;6.50;99.90;;;;;;6240455;23;20917;-67
2022/01/30 01:53:58;;;;;;;13.27;2.70;;;6.40;99.90;;;;;;6243559;23;20167;-68
2022/01/30 01:56:27;;;;;;;19.30;3.40;;;6.30;1.00;;;;;;6242429;23;20214;-67
2022/01/30 01:58:54;;;;;;;10.67;2.77;;;6.40;99.90;;;;;;6243384;23;20155;-67
2022/01/30 02:01:24;;;;;;;16.13;3.17;;;6.40;99.90;;;;;;6243205;23;20178;-67
2022/01/30 02:03:51;;;;;;;15.53;3.63;;;6.40;99.90;;;;;;6242992;23;20179;-68
2022/01/30 02:06:21;;;;;;;12.77;2.77;;;6.40;99.90;;;;;;6241703;23;20225;-67
2022/01/30 02:08:52;;;;;;;15.87;2.23;;;6.30;1.00;;;;;;6243036;23;20617;-67
2022/01/30 02:11:31;;;;;;;14.20;2.47;;;6.20;1.00;;;;;;6243255;23;20499;-67
2022/01/30 02:14:22;;;;;;;18.10;2.90;;;6.20;1.00;;;;;;6243814;23;20201;-68
2022/01/30 02:25:19;;;;;;;11.27;2.30;;;6.40;1.00;;;;;;6241283;23;20166;-67
2022/01/30 02:27:47;;;;;;;14.07;2.40;;;6.40;1.00;;;;;;6242828;23;20179;-70
2022/01/30 02:30:19;;;;;;;14.17;2.40;;;6.30;1.00;;;;;;6243438;23;20536;-67
2022/01/30 02:32:46;;;;;;;16.53;3.20;;;6.30;1.00;;;;;;6241770;23;20174;-67
2022/01/30 02:35:14;;;;;;;11.87;2.80;;;6.30;1.00;;;;;;6241059;23;20577;-68
2022/01/30 02:37:42;;;;;;;15.90;2.47;;;6.40;1.00;;;;;;6243138;23;20586;-68
2022/01/30 02:40:12;;;;;;;16.83;2.80;;;6.20;1.00;;;;;;6243284;23;20162;-68
2022/01/30 02:42:46;;;;;;;18.23;2.70;;;6.20;1.00;;;;;;6243003;23;20524;-68
2022/01/30 02:45:14;;;;;;;15.60;2.57;;;6.10;1.00;;;;;;6241343;23;20233;-68
2022/01/30 02:47:54;;;;;;;20.03;3.33;;;6.20;1.00;;;;;;6243178;23;20182;-68
2022/01/30 02:50:33;;;;;;;13.03;2.43;;;6.20;1.00;;;;;;6241492;23;20493;-68
2022/01/30 02:53:04;;;;;;;20.80;3.40;;;6.30;1.00;;;;;;6243143;23;20541;-68
2022/01/30 02:55:31;;;;;;;17.43;2.90;;;6.20;1.00;;;;;;6242065;23;20174;-68
2022/01/30 02:57:59;;;;;;;12.53;2.40;;;6.20;1.00;;;;;;6243126;23;20210;-68
2022/01/30 03:00:26;;;;;;;14.93;3.40;;;6.10;1.00;;;;;;6240757;23;20159;-68
2022/01/30 03:02:53;;;;;;;13.23;2.80;;;6.00;1.00;;;;;;6241069;23;20183;-68
2022/01/30 03:05:20;;;;;;;14.20;2.70;;;6.00;1.00;;;;;;6241547;23;20201;-68
2022/01/30 03:07:47;;;;;;;14.03;2.27;;;6.00;1.00;;;;;;6241618;23;20552;-68
2022/01/30 03:10:15;;;;;;;15.47;3.30;;;6.10;1.00;;;;;;6241240;23;20155;-68
2022/01/30 03:12:42;;;;;;;15.57;2.83;;;6.10;1.00;;;;;;6241249;23;20578;-67
2022/01/30 03:15:10;;;;;;;12.67;2.83;;;6.20;1.00;;;;;;6241499;23;20217;-68
2022/01/30 03:17:37;;;;;;;14.60;2.70;;;6.20;1.00;;;;;;6241144;23;20154;-68
2022/01/30 03:20:05;;;;;;;16.57;2.83;;;6.20;1.00;;;;;;6242205;23;20187;-68
2022/01/30 03:22:32;;;;;;;18.43;3.47;;;6.30;1.00;;;;;;6244930;23;20692;-68
2022/01/30 03:24:59;;;;;;;16.07;2.70;;;6.20;1.00;;;;;;6243151;23;20601;-68
2022/01/30 03:27:29;;;;;;;13.10;2.60;;;6.10;1.00;;;;;;6243943;23;20154;-68
2022/01/30 03:30:04;;;;;;;15.27;2.77;;;6.00;1.00;;;;;;6244058;23;20227;-68
2022/01/30 03:32:31;;;;;;;12.43;3.70;;;6.10;1.00;;;;;;6243534;23;20168;-68
2022/01/30 03:34:58;;;;;;;13.13;2.53;;;6.10;1.00;;;;;;6244033;23;20163;-68
2022/01/30 03:37:26;;;;;;;16.00;2.63;;;6.10;1.00;;;;;;6243755;23;20537;-68
2022/01/30 03:39:53;;;;;;;11.73;2.70;;;6.10;1.00;;;;;;6244556;23;20159;-68
2022/01/30 03:42:20;;;;;;;19.43;2.97;;;6.20;1.00;;;;;;6242924;23;20182;-69
2022/01/30 03:44:49;;;;;;;13.67;2.70;;;6.20;1.00;;;;;;6242291;23;20209;-70
2022/01/30 03:47:16;;;;;;;16.23;2.50;;;6.20;1.00;;;;;;6245356;23;20636;-69
2022/01/30 03:49:43;;;;;;;13.40;2.37;;;6.20;1.00;;;;;;6243944;23;20560;-69
2022/01/30 03:52:10;;;;;;;14.30;4.07;;;6.10;1.00;;;;;;6242952;23;20233;-69
2022/01/30 03:54:37;;;;;;;19.53;3.07;;;6.00;1.00;;;;;;6243473;23;20190;-69
2022/01/30 03:57:05;;;;;;;14.10;2.63;;;6.00;1.00;;;;;;6244269;23;20228;-69
2022/01/30 03:59:32;;;;;;;16.67;2.93;;;6.00;1.00;;;;;;6241917;23;20791;-69
2022/01/30 04:02:00;;;;;;;16.43;2.47;;;5.90;1.00;;;;;;6244682;23;20220;-69
2022/01/30 04:04:27;;;;;;;12.93;2.80;;;6.00;1.00;;;;;;6244597;23;20154;-69
2022/01/30 04:06:58;;;;;;;20.03;3.53;;;6.10;1.00;;;;;;6242258;23;20159;-68
2022/01/30 04:09:25;;;;;;;20.23;3.37;;;6.10;1.00;;;;;;6243799;23;20167;-69
2022/01/30 04:11:53;;;;;;;16.77;2.50;;;6.00;1.00;;;;;;6244243;23;20163;-69
2022/01/30 04:14:20;;;;;;;11.87;2.37;;;6.00;66.10;;;;;;6241205;23;20216;-69
2022/01/30 04:16:48;;;;;;;14.90;2.83;;;6.00;1.00;;;;;;6243015;23;20155;-69
2022/01/30 04:19:17;;;;;;;15.10;3.30;;;6.00;1.00;;;;;;6244002;23;20217;-69
2022/01/30 04:21:44;;;;;;;11.70;2.37;;;5.90;99.90;;;;;;6243546;23;20163;-69
2022/01/30 04:24:11;;;;;;;17.17;3.63;;;5.90;2.80;;;;;;6243752;23;20212;-68
2022/01/30 04:26:38;;;;;;;12.90;3.00;;;5.90;1.00;;;;;;6244140;23;20574;-68
2022/01/30 04:29:06;;;;;;;12.70;2.80;;;5.70;99.90;;;;;;6243930;23;20205;-69
2022/01/30 04:31:33;;;;;;;16.83;3.23;;;5.70;99.90;;;;;;6243599;23;20582;-69
2022/01/30 04:34:01;;;;;;;16.33;3.00;;;5.70;32.00;;;;;;6243787;23;20586;-69
2022/01/30 04:36:35;;;;;;;19.33;3.33;;;5.80;1.00;;;;;;6243594;23;20167;-69
2022/01/30 04:39:12;;;;;;;22.00;2.83;;;5.80;99.90;;;;;;6244035;23;20537;-69
2022/01/30 04:42:09;;;;;;;16.90;3.03;;;5.70;95.40;;;;;;6243486;23;20178;-69
2022/01/30 04:53:14;;;;;;;18.93;3.33;;;5.60;99.90;;;;;;6243994;23;20165;-69
2022/01/30 04:58:28;;;;;;;17.30;2.90;;;5.60;1.00;;;;;;6243148;23;20248;-68
2022/01/30 05:01:06;;;;;;;15.00;3.57;;;5.50;1.00;;;;;;6243708;23;20185;-69
2022/01/30 05:03:44;;;;;;;19.37;3.77;;;5.50;70.20;;;;;;6243301;23;20274;-69
2022/01/30 05:06:15;;;;;;;15.13;2.77;;;5.50;99.90;;;;;;6243940;23;20485;-69
2022/01/30 05:08:44;;;;;;;16.10;3.30;;;5.60;99.90;;;;;;6243997;23;20179;-69
2022/01/30 05:11:11;;;;;;;17.10;3.43;;;5.50;99.90;;;;;;6243839;23;20159;-68
2022/01/30 05:13:43;;;;;;;16.47;4.23;;;5.50;1.00;;;;;;6243578;23;20174;-69
2022/01/30 05:16:11;;;;;;;17.20;3.90;;;5.30;99.90;;;;;;6243488;23;20182;-69
2022/01/30 05:18:39;;;;;;;21.10;3.30;;;5.30;99.90;;;;;;6243291;23;20167;-69
2022/01/30 05:21:06;;;;;;;13.50;2.90;;;5.30;58.50;;;;;;6243653;23;20163;-69
2022/01/30 05:23:33;;;;;;;18.20;3.10;;;5.40;1.00;;;;;;6243330;23;20178;-69
2022/01/30 05:26:08;;;;;;;17.90;3.10;;;5.40;1.00;;;;;;6243424;23;20155;-69
2022/01/30 05:28:36;;;;;;;16.67;3.13;;;5.30;1.00;;;;;;6243697;23;20158;-68
2022/01/30 05:31:03;;;;;;;19.90;3.97;;;5.40;1.00;;;;;;6243315;23;20154;-69
2022/01/30 05:33:30;;;;;;;17.33;3.30;;;5.30;1.00;;;;;;6243299;23;20537;-69
2022/01/30 05:35:58;;;;;;;22.37;3.63;;;5.30;1.00;;;;;;6242957;23;20158;-69
2022/01/30 05:38:26;;;;;;;24.20;4.40;;;5.30;1.00;;;;;;6243275;23;20590;-69
2022/01/30 05:40:53;;;;;;;21.37;3.77;;;5.30;99.90;;;;;;6243136;23;20163;-69
2022/01/30 05:43:23;;;;;;;19.70;3.50;;;5.30;99.90;;;;;;6242918;23;20179;-69
2022/01/30 05:45:59;;;;;;;16.37;4.20;;;5.40;99.90;;;;;;6242932;23;20659;-69
2022/01/30 05:48:26;;;;;;;18.43;3.70;;;5.50;99.90;;;;;;6243086;23;20170;-65
2022/01/30 05:50:54;;;;;;;23.70;4.40;;;5.50;99.90;;;;;;6242811;23;20178;-67
2022/01/30 05:53:21;;;;;;;25.23;5.70;;;5.50;99.90;;;;;;6243313;23;20228;-68
2022/01/30 05:55:48;;;;;;;20.33;5.13;;;5.40;99.90;;;;;;6242763;23;20213;-69
2022/01/30 05:58:15;;;;;;;23.70;4.50;;;5.40;99.90;;;;;;6243213;23;20163;-69
2022/01/30 06:00:43;;;;;;;21.03;4.47;;;5.30;1.00;;;;;;6242928;23;20261;-69
2022/01/30 06:03:10;;;;;;;19.43;3.30;;;5.20;1.00;;;;;;6243153;23;20237;-69
2022/01/30 06:05:38;;;;;;;21.27;4.53;;;5.10;1.00;;;;;;6242634;23;20163;-69
2022/01/30 06:08:12;;;;;;;18.97;3.90;;;5.20;1.00;;;;;;6242944;23;20510;-69
2022/01/30 06:10:39;;;;;;;20.70;3.60;;;5.20;1.00;;;;;;6243648;23;20606;-69
2022/01/30 06:13:06;;;;;;;17.23;3.77;;;5.10;1.00;;;;;;6242957;23;20803;-68
2022/01/30 06:15:33;;;;;;;23.57;3.47;;;5.00;1.00;;;;;;6242984;23;20654;-68
2022/01/30 06:18:02;;;;;;;26.63;4.70;;;5.00;1.00;;;;;;6242638;23;20162;-69
2022/01/30 06:20:28;;;;;;;20.57;4.17;;;5.00;22.10;;;;;;6242754;23;20548;-69
2022/01/30 06:22:55;;;;;;;21.87;4.23;;;5.00;1.00;;;;;;6242852;23;20563;-69
2022/01/30 06:25:22;;;;;;;26.00;4.50;;;5.00;1.00;;;;;;6242510;23;20159;-69
2022/01/30 06:27:49;;;;;;;21.27;4.13;;;5.00;1.00;;;;;;6242658;23;20190;-68
2022/01/30 06:30:21;;;;;;;18.80;3.80;;;5.00;1.00;;;;;;6243128;23;20162;-69
2022/01/30 06:32:49;;;;;;;25.97;6.40;;;4.90;1.00;;;;;;6243162;23;20257;-69
2022/01/30 06:35:17;;;;;;;20.33;4.37;;;4.90;1.00;;;;;;6242404;23;20380;-69
2022/01/30 06:37:44;;;;;;;18.27;4.17;;;4.90;1.00;;;;;;6242795;23;20155;-69
2022/01/30 06:40:12;;;;;;;21.50;4.47;;;4.90;99.90;;;;;;6242788;23;20155;-69
2022/01/30 06:42:40;;;;;;;19.73;4.43;;;4.90;31.40;;;;;;6242588;23;20261;-68
2022/01/30 06:45:08;;;;;;;22.57;3.80;;;4.90;1.00;;;;;;6242291;23;20262;-69
2022/01/30 06:47:41;;;;;;;20.40;4.10;;;4.90;1.00;;;;;;6242545;23;20209;-69
2022/01/30 06:50:09;;;;;;;23.70;3.93;;;4.90;1.00;;;;;;6243007;23;20190;-69
2022/01/30 06:52:38;;;;;;;24.80;4.33;;;4.90;1.00;;;;;;6242490;23;20166;-69
2022/01/30 06:55:06;;;;;;;20.07;3.43;;;5.00;1.00;;;;;;6242098;23;20159;-69
2022/01/30 06:57:33;;;;;;;22.80;3.90;;;4.90;1.00;;;;;;6242344;23;20154;-69
2022/01/30 07:00:00;;;;;;;23.33;4.10;;;4.90;12.90;;;;;;6242842;23;20582;-69
2022/01/30 07:02:27;;;;;;;28.37;4.40;;;5.00;1.00;;;;;;6242268;23;20163;-69
2022/01/30 07:04:54;;;;;;;24.83;6.17;;;5.00;1.00;;;;;;6242577;23;20208;-69
2022/01/30 07:07:21;;;;;;;22.07;4.23;;;5.00;1.00;;;;;;6242847;23;20209;-68
2022/01/30 07:09:50;;;;;;;25.43;5.37;;;5.00;1.00;;;;;;6242760;23;20632;-67
2022/01/30 07:12:16;;;;;;;23.90;4.90;;;5.00;1.00;;;;;;6242818;23;20604;-68
2022/01/30 07:14:43;;;;;;;26.27;5.17;;;5.00;1.00;;;;;;6241894;23;20155;-68
2022/01/30 07:17:11;;;;;;;22.27;3.87;;;5.00;1.00;;;;;;6243032;23;20166;-68
2022/01/30 07:19:38;;;;;;;20.60;4.07;;;5.00;1.00;;;;;;6242500;23;20442;-69
2022/01/30 07:22:05;;;;;;;29.10;5.37;;;5.00;1.00;;;;;;6242971;23;20190;-69
2022/01/30 07:24:32;;;;;;;29.27;5.43;;;5.00;1.00;;;;;;6242093;23;20606;-67
2022/01/30 07:27:01;;;;;;;38.67;6.83;;;5.10;99.90;;;;;;6242546;23;20155;-68
2022/01/30 07:29:28;;;;;;;22.53;3.90;;;5.10;99.90;;;;;;6242127;23;20158;-69
2022/01/30 07:31:55;;;;;;;27.60;5.37;;;5.10;99.90;;;;;;6242239;23;20167;-71
2022/01/30 07:34:22;;;;;;;27.23;5.30;;;5.00;99.90;;;;;;6242384;23;20158;-69
2022/01/30 07:36:50;;;;;;;30.13;5.97;;;5.10;99.90;;;;;;6242184;23;20178;-69
2022/01/30 07:39:17;;;;;;;26.03;5.33;;;5.10;99.90;;;;;;6242478;23;20163;-69
2022/01/30 07:41:44;;;;;;;22.60;4.80;;;5.10;99.90;;;;;;6242131;23;20155;-69
2022/01/30 07:44:13;;;;;;;23.50;5.33;;;5.20;99.90;;;;;;6242183;23;20178;-69
2022/01/30 07:46:40;;;;;;;27.87;4.07;;;5.30;99.90;;;;;;6242197;23;20229;-69
2022/01/30 07:49:07;;;;;;;18.80;4.63;;;5.30;99.90;;;;;;6242756;23;20159;-68
2022/01/30 07:51:34;;;;;;;21.10;4.37;;;5.30;99.90;;;;;;6242186;23;20178;-71
2022/01/30 07:54:01;;;;;;;21.17;4.33;;;5.40;1.00;;;;;;6242292;23;20198;-69
2022/01/30 07:56:30;;;;;;;22.47;3.60;;;5.30;99.90;;;;;;6242438;23;20159;-69
2022/01/30 07:58:58;;;;;;;31.17;4.97;;;5.30;1.00;;;;;;6242147;23;20155;-69
2022/01/30 08:01:26;;;;;;;23.27;5.40;;;5.40;1.00;;;;;;6242721;23;20159;-69
2022/01/30 08:03:53;;;;;;;27.47;5.10;;;5.40;1.00;;;;;;6242612;23;20179;-69
2022/01/30 08:06:20;;;;;;;20.43;4.37;;;5.30;1.00;;;;;;6243160;23;20155;-69
2022/01/30 08:08:47;;;;;;;22.57;4.17;;;5.40;1.00;;;;;;6244366;23;20163;-69
2022/01/30 08:11:14;;;;;;;27.73;5.13;;;5.40;1.00;;;;;;6244605;23;20518;-69
2022/01/30 08:13:41;;;;;;;25.00;5.40;;;5.50;1.00;;;;;;6244102;23;20167;-69
2022/01/30 08:16:08;;;;;;;27.23;4.17;;;5.50;1.00;;;;;;6243963;23;20155;-69
2022/01/30 08:18:38;;;;;;;21.77;4.53;;;5.40;1.00;;;;;;6244271;23;20545;-69
2022/01/30 08:21:06;;;;;;;25.73;5.27;;;5.40;1.00;;;;;;6243724;23;20264;-69
2022/01/30 08:23:33;;;;;;;26.03;5.17;;;5.40;1.00;;;;;;6244238;23;20482;-69
2022/01/30 08:26:01;;;;;;;23.43;5.40;;;5.40;1.00;;;;;;6243741;23;20617;-69
2022/01/30 08:28:28;;;;;;;20.40;4.67;;;5.40;1.00;;;;;;6244298;23;20482;-69
2022/01/30 08:30:55;;;;;;;23.17;4.40;;;5.60;1.00;;;;;;6243839;23;20209;-69
2022/01/30 08:33:22;;;;;;;30.07;5.40;;;5.80;1.00;;;;;;6244520;23;20210;-69
2022/01/30 08:35:51;;;;;;;24.53;5.43;;;5.90;1.00;;;;;;6243975;23;20415;-69
2022/01/30 08:38:18;;;;;;;27.03;5.63;;;5.80;1.00;;;;;;6243351;23;20155;-69
2022/01/30 08:40:46;;;;;;;25.53;4.70;;;5.80;1.00;;;;;;6242913;23;20179;-69
2022/01/30 08:43:13;;;;;;;26.23;5.27;;;5.80;1.00;;;;;;6242885;23;20182;-69
2022/01/30 08:45:41;;;;;;;26.40;5.33;;;5.90;1.00;;;;;;6242978;23;20239;-69
2022/01/30 08:48:08;;;;;;;23.00;4.33;;;5.90;1.00;;;;;;6241978;23;20175;-69
2022/01/30 08:50:35;;;;;;;26.43;4.53;;;5.90;1.00;;;;;;6243304;23;20239;-69
2022/01/30 08:53:04;;;;;;;23.87;4.70;;;5.90;99.90;;;;;;6242507;23;20177;-69
2022/01/30 08:55:33;;;;;;;26.67;4.50;;;5.90;99.90;;;;;;6242318;23;20257;-69
2022/01/30 08:58:07;;;;;;;25.27;4.60;;;5.90;1.00;;;;;;6244252;23;20179;-69
2022/01/30 09:00:35;;;;;;;19.73;4.60;;;5.90;99.90;;;;;;6243403;23;20185;-69
2022/01/30 09:03:02;;;;;;;26.30;4.57;;;6.00;99.90;;;;;;6242176;23;20165;-69
2022/01/30 09:05:30;;;;;;;20.17;4.37;;;6.00;99.90;;;;;;6243774;23;20275;-69
2022/01/30 09:07:57;;;;;;;29.67;5.63;;;6.00;99.90;;;;;;6243400;23;20566;-69
2022/01/30 09:10:25;;;;;;;26.10;4.27;;;6.00;99.90;;;;;;6242160;23;20594;-69
2022/01/30 09:12:53;;;;;;;24.17;5.20;;;6.00;99.90;;;;;;6243009;23;20155;-69
2022/01/30 09:15:19;;;;;;;29.80;5.33;;;6.00;99.90;;;;;;6242347;23;20159;-69
2022/01/30 09:17:46;;;;;;;23.87;4.43;;;6.10;25.20;;;;;;6243594;23;20185;-69
2022/01/30 09:20:14;;;;;;;20.30;4.50;;;6.10;99.90;;;;;;6242692;23;20213;-69
2022/01/30 09:22:41;;;;;;;32.13;5.13;;;6.10;99.90;;;;;;6240932;23;20159;-69
2022/01/30 09:25:10;;;;;;;23.33;5.17;;;6.10;99.90;;;;;;6242746;23;20187;-69
2022/01/30 09:27:38;;;;;;;26.80;5.27;;;6.10;99.90;;;;;;6244082;23;20208;-69
2022/01/30 09:30:08;;;;;;;27.87;6.20;;;6.20;99.90;;;;;;6244314;23;20155;-70
2022/01/30 09:32:35;;;;;;;26.50;4.70;;;6.10;99.90;;;;;;6243877;23;20155;-69
2022/01/30 09:35:02;;;;;;;25.60;5.60;;;6.20;99.90;;;;;;6244080;23;20217;-69
2022/01/30 09:37:29;;;;;;;20.00;4.57;;;6.20;99.90;;;;;;6243842;23;20190;-69
2022/01/30 09:39:56;;;;;;;20.50;4.20;;;6.20;99.90;;;;;;6244144;23;20491;-69
2022/01/30 09:42:24;;;;;;;31.00;5.57;;;6.20;99.90;;;;;;6243823;23;20163;-69
2022/01/30 09:44:53;;;;;;;23.90;5.20;;;6.20;99.90;;;;;;6243720;23;20178;-74
2022/01/30 09:47:20;;;;;;;21.03;4.00;;;6.30;99.90;;;;;;6243473;23;20155;-70
2022/01/30 09:49:49;;;;;;;32.10;5.73;;;6.30;99.90;;;;;;6242367;23;20495;-71
2022/01/30 09:52:16;;;;;;;20.00;4.27;;;6.40;99.90;;;;;;6242955;23;20167;-71
2022/01/30 09:54:43;;;;;;;23.83;5.00;;;6.40;99.90;;;;;;6243115;23;20162;-71
2022/01/30 09:57:10;;;;;;;26.60;4.57;;;6.40;99.90;;;;;;6243079;23;20202;-70
2022/01/30 09:59:37;;;;;;;23.80;4.77;;;6.40;99.90;;;;;;6243302;23;20155;-70
2022/01/30 10:02:08;;;;;;;26.73;4.83;;;6.40;1.00;;;;;;6243007;23;20205;-70
2022/01/30 10:04:36;;;;;;;23.17;4.97;;;6.40;1.00;;;;;;6241953;23;20232;-70
2022/01/30 10:07:09;;;;;;;24.80;5.50;;;6.40;1.00;;;;;;6243637;23;20601;-71
2022/01/30 10:09:42;;;;;;;25.57;4.60;;;6.40;1.00;;;;;;6242677;23;20174;-71
2022/01/30 10:12:15;;;;;;;26.93;4.93;;;6.50;1.00;;;;;;6242804;23;20174;-70
2022/01/30 10:14:53;;;;;;;30.30;5.73;;;6.50;1.00;;;;;;6242165;23;20175;-70
2022/01/30 10:17:27;;;;;;;21.37;4.67;;;6.50;1.00;;;;;;6243240;23;20208;-70
2022/01/30 10:20:01;;;;;;;33.77;5.83;;;6.40;1.00;;;;;;6242817;23;20500;-71
2022/01/30 10:22:29;;;;;;;23.93;4.63;;;6.40;1.00;;;;;;6243023;23;20171;-70
2022/01/30 10:24:56;;;;;;;20.27;3.97;;;6.40;1.00;;;;;;6242405;23;20178;-70
2022/01/30 10:27:26;;;;;;;23.00;5.27;;;6.40;1.00;;;;;;6242829;23;20261;-69
2022/01/30 10:29:58;;;;;;;26.47;5.53;;;6.40;1.00;;;;;;6242941;23;20155;-70
2022/01/30 10:32:27;;;;;;;31.03;5.93;;;6.50;1.00;;;;;;6242656;23;20163;-71
2022/01/30 10:35:00;;;;;;;27.60;5.70;;;6.40;1.00;;;;;;6242766;23;20605;-70
2022/01/30 10:37:28;;;;;;;28.97;5.87;;;6.40;1.00;;;;;;6242449;23;20204;-70
2022/01/30 10:40:12;;;;;;;25.90;5.83;;;6.50;1.00;;;;;;6243269;23;20167;-71
2022/01/30 10:42:42;;;;;;;32.57;6.10;;;6.50;1.00;;;;;;6242152;23;20185;-70
2022/01/30 10:45:12;;;;;;;30.17;5.80;;;6.50;1.00;;;;;;6242510;23;20194;-75
2022/01/30 10:47:41;;;;;;;31.30;7.33;;;6.60;1.00;;;;;;6242631;23;20163;-70
2022/01/30 10:50:18;;;;;;;25.93;5.10;;;6.60;1.00;;;;;;6243073;23;20522;-71
2022/01/30 10:52:57;;;;;;;29.93;6.07;;;6.60;1.00;;;;;;6242726;23;20190;-70
2022/01/30 10:55:35;;;;;;;28.67;5.63;;;6.60;1.00;;;;;;6242332;23;20170;-70
2022/01/30 10:58:04;;;;;;;25.43;5.60;;;6.70;1.00;;;;;;6242702;23;20155;-70
2022/01/30 11:00:43;;;;;;;30.00;5.10;;;6.60;1.00;;;;;;6242329;23;20201;-69
2022/01/30 11:03:32;;;;;;;27.63;5.57;;;6.70;1.00;;;;;;6242391;23;20217;-70
2022/01/30 11:06:00;;;;;;;31.77;7.03;;;6.70;99.90;;;;;;6237768;23;20683;-70
2022/01/30 11:08:29;;;;;;;27.00;4.60;;;6.70;1.00;;;;;;6242637;23;20579;-71
2022/01/30 11:11:08;;;;;;;25.63;5.20;;;6.60;99.90;;;;;;6242531;23;20228;-70
2022/01/30 11:13:47;;;;;;;29.53;4.57;;;6.70;99.90;;;;;;6242360;23;20174;-70
2022/01/30 11:19:02;;;;;;;25.20;5.47;;;6.70;99.90;;;;;;6242639;23;20157;-69
2022/01/30 11:21:30;;;;;;;28.63;5.50;;;6.70;99.90;;;;;;6242673;23;20175;-70
2022/01/30 11:24:00;;;;;;;27.93;6.60;;;6.80;99.90;;;;;;6242614;23;20186;-70
2022/01/30 11:26:28;;;;;;;23.63;5.27;;;6.80;99.90;;;;;;6242005;23;20158;-70
2022/01/30 11:28:56;;;;;;;25.63;5.40;;;6.80;99.90;;;;;;6242444;23;20234;-70
2022/01/30 11:31:24;;;;;;;23.70;4.97;;;6.80;84.70;;;;;;6242166;23;20154;-70
2022/01/30 11:33:52;;;;;;;38.30;7.57;;;6.80;99.90;;;;;;6242515;23;20209;-69
2022/01/30 11:36:22;;;;;;;30.70;5.27;;;6.80;99.90;;;;;;6217260;23;20179;-70
2022/01/30 11:38:50;;;;;;;29.50;6.03;;;6.70;99.90;;;;;;6242296;23;20200;-69
2022/01/30 11:41:19;;;;;;;30.90;5.90;;;6.70;99.90;;;;;;6230878;23;20408;-71
2022/01/30 11:44:26;;;;;;;34.60;5.97;;;6.70;99.90;;;;;;6244696;23;20166;-70
2022/01/30 11:47:17;;;;;;;35.83;6.00;;;6.70;99.90;;;;;;6244160;23;20174;-70
2022/01/30 11:49:47;;;;;;;35.00;6.30;;;6.70;99.90;;;;;;6230222;23;20190;-70
2022/01/30 11:52:17;;;;;;;34.67;6.17;;;6.70;99.90;;;;;;6245076;23;20486;-70
2022/01/30 11:54:47;;;;;;;33.13;6.37;;;6.70;99.90;;;;;;6244000;23;20311;-70
2022/01/30 11:57:46;;;;;;;29.77;4.93;;;6.70;99.90;;;;;;6244175;23;20205;-70
2022/01/30 12:00:35;;;;;;;39.27;6.40;;;6.80;99.90;;;;;;6244191;23;20237;-71
2022/01/30 12:03:22;;;;;;;37.53;6.73;;;6.80;62.30;;;;;;6244472;23;20261;-69
2022/01/30 12:05:50;;;;;;;24.43;5.80;;;6.70;64.10;;;;;;6243972;23;20229;-69
2022/01/30 12:08:45;;;;;;;27.73;6.47;;;6.80;1.00;;;;;;6231405;23;20201;-69
2022/01/30 12:11:48;;;;;;;23.07;4.83;;;6.80;1.00;;;;;;6244288;23;20234;-69
2022/01/30 12:14:54;;;;;;;26.17;5.57;;;6.80;1.00;;;;;;6239514;23;20178;-69
2022/01/30 12:17:49;;;;;;;27.47;5.53;;;6.80;1.00;;;;;;6244403;23;20184;-69
2022/01/30 12:20:16;;;;;;;24.27;4.47;;;6.80;1.00;;;;;;6244250;23;20257;-70
2022/01/30 12:22:44;;;;;;;31.70;6.43;;;6.80;1.00;;;;;;6243774;23;20159;-70
2022/01/30 12:25:40;;;;;;;35.50;7.33;;;6.80;1.00;;;;;;6243676;23;20487;-70
2022/01/30 12:28:11;;;;;;;28.33;5.43;;;6.90;1.00;;;;;;6243973;23;20532;-69
2022/01/30 12:30:46;;;;;;;30.63;5.33;;;7.00;1.00;;;;;;6243887;23;20155;-70
2022/01/30 12:33:42;;;;;;;27.07;6.67;;;6.90;1.00;;;;;;6243982;23;20228;-69
2022/01/30 12:36:20;;;;;;;27.77;6.53;;;7.00;1.00;;;;;;6174696;23;20609;-74
2022/01/30 12:38:54;;;;;;;36.57;6.27;;;7.00;1.00;;;;;;6243562;23;20208;-70
2022/01/30 12:41:23;;;;;;;31.27;5.90;;;7.00;1.00;;;;;;6243684;23;20181;-70
2022/01/30 12:43:55;;;;;;;27.03;6.00;;;7.00;1.00;;;;;;6244337;23;20976;-72
2022/01/30 12:46:27;;;;;;;28.80;6.27;;;7.00;1.00;;;;;;6243273;23;20379;-69
2022/01/30 12:49:12;;;;;;;25.30;6.00;;;6.90;1.00;;;;;;6244082;23;20590;-72
2022/01/30 12:51:42;;;;;;;29.33;5.57;;;6.90;1.00;;;;;;6242687;23;20507;-70
2022/01/30 12:54:10;;;;;;;21.47;4.50;;;7.00;1.00;;;;;;6243609;23;20158;-72
2022/01/30 12:56:39;;;;;;;21.30;4.80;;;7.00;1.00;;;;;;6243491;23;20674;-70
2022/01/30 12:59:07;;;;;;;37.17;7.30;;;7.00;1.00;;;;;;6243609;23;20159;-72
2022/01/30 13:01:37;;;;;;;25.83;5.33;;;7.00;1.00;;;;;;6243617;23;20181;-70
2022/01/30 13:04:07;;;;;;;30.93;6.03;;;7.10;1.00;;;;;;6243516;23;20264;-69
2022/01/30 13:06:35;;;;;;;27.47;5.23;;;7.10;1.00;;;;;;6243907;23;20579;-69
2022/01/30 13:09:03;;;;;;;36.13;5.97;;;7.10;1.00;;;;;;6243613;23;20233;-70
2022/01/30 13:11:30;;;;;;;33.97;6.30;;;7.00;1.00;;;;;;6243246;23;20166;-71
2022/01/30 13:14:01;;;;;;;24.30;4.90;;;7.10;1.00;;;;;;6241284;23;20163;-70
2022/01/30 13:16:30;;;;;;;25.40;5.57;;;7.10;1.00;;;;;;6241863;23;20185;-69
2022/01/30 13:18:58;;;;;;;27.27;5.90;;;7.00;1.00;;;;;;6239432;23;20201;-69
2022/01/30 13:21:27;;;;;;;30.73;6.43;;;7.00;1.00;;;;;;6237832;23;20204;-69
2022/01/30 13:23:55;;;;;;;26.97;6.53;;;7.00;1.00;;;;;;6233470;23;20231;-69
2022/01/30 13:26:45;;;;;;;26.03;5.47;;;7.00;1.00;;;;;;6233396;23;20248;-67
2022/01/30 13:29:17;;;;;;;26.90;5.63;;;7.00;1.00;;;;;;6234006;23;20248;-68
2022/01/30 13:31:47;;;;;;;30.57;5.73;;;7.00;1.00;;;;;;6233098;23;20186;-67
2022/01/30 13:34:22;;;;;;;27.07;6.90;;;7.00;1.00;;;;;;6234756;23;20179;-68
2022/01/30 13:36:55;;;;;;;30.37;5.07;;;6.90;1.00;;;;;;6235009;23;20178;-67
2022/01/30 13:39:31;;;;;;;30.03;5.70;;;6.90;1.00;;;;;;6235352;23;20175;-68
2022/01/30 13:42:30;;;;;;;25.30;4.67;;;6.90;1.00;;;;;;6234658;23;20182;-67